Ganser Bar, California
Current Conditions -  °F | °C
As of 4:35 AM on Monday 20 Oct 2014 (Local Time) from KCIC Reporting Station
Overcast Overcast  
Wind Chill: 63°   Ceiling: 6000
Heat Index: 63°   Visibility: 10mi
Dew Point: 50°   Wind: 16mph
Humidity: 63%   Direction: 150°SSE
Pressure: 29.84"   Gusts: 22mph
Location:  40.0464°N, 121.282°W
Report Text: KCIC 201135Z AUTO 15014G19KT 10SM OVC060 17/10 A2984 RMK AO1
Loading
Personal Weather Stations






























Interactive Weather Map New forecast layout! Learn more

10-Day Weather Forecast

Advertisements
Track Severe Weather on mobile